sensor_id;sensor_type;location;lat;lon;timestamp;P1;durP1;ratioP1;P2;durP2;ratioP2
53666;SDS011;39568;51.026;5.468;2023-03-01T00:01:24;21.33;;;13.00;;
53666;SDS011;39568;51.026;5.468;2023-03-01T00:03:53;16.92;;;12.35;;
53666;SDS011;39568;51.026;5.468;2023-03-01T00:06:24;19.05;;;12.55;;
53666;SDS011;39568;51.026;5.468;2023-03-01T00:08:51;18.45;;;11.73;;
53666;SDS011;39568;51.026;5.468;2023-03-01T00:11:18;16.00;;;11.95;;
53666;SDS011;39568;51.026;5.468;2023-03-01T00:13:47;15.85;;;11.02;;
53666;SDS011;39568;51.026;5.468;2023-03-01T00:16:16;21.08;;;12.57;;
53666;SDS011;39568;51.026;5.468;2023-03-01T00:18:44;16.08;;;10.50;;
53666;SDS011;39568;51.026;5.468;2023-03-01T00:21:13;22.05;;;11.23;;
53666;SDS011;39568;51.026;5.468;2023-03-01T00:23:40;22.45;;;11.80;;
53666;SDS011;39568;51.026;5.468;2023-03-01T00:26:07;14.32;;;11.88;;
53666;SDS011;39568;51.026;5.468;2023-03-01T00:28:36;20.95;;;11.05;;
53666;SDS011;39568;51.026;5.468;2023-03-01T00:31:03;17.10;;;12.63;;
53666;SDS011;39568;51.026;5.468;2023-03-01T00:33:31;14.65;;;12.15;;
53666;SDS011;39568;51.026;5.468;2023-03-01T00:35:57;22.55;;;13.73;;
53666;SDS011;39568;51.026;5.468;2023-03-01T00:38:26;18.25;;;12.68;;
53666;SDS011;39568;51.026;5.468;2023-03-01T00:40:52;17.92;;;12.68;;
53666;SDS011;39568;51.026;5.468;2023-03-01T00:43:19;18.98;;;11.88;;
53666;SDS011;39568;51.026;5.468;2023-03-01T00:45:46;17.08;;;12.63;;
53666;SDS011;39568;51.026;5.468;2023-03-01T00:48:13;23.80;;;12.23;;
53666;SDS011;39568;51.026;5.468;2023-03-01T00:50:39;16.73;;;12.55;;
53666;SDS011;39568;51.026;5.468;2023-03-01T00:53:06;20.25;;;13.40;;
53666;SDS011;39568;51.026;5.468;2023-03-01T00:55:35;19.63;;;13.88;;
53666;SDS011;39568;51.026;5.468;2023-03-01T00:58:02;22.63;;;13.02;;
53666;SDS011;39568;51.026;5.468;2023-03-01T01:00:29;16.95;;;12.63;;
53666;SDS011;39568;51.026;5.468;2023-03-01T01:02:55;16.63;;;12.57;;
53666;SDS011;39568;51.026;5.468;2023-03-01T01:05:22;22.85;;;14.07;;
53666;SDS011;39568;51.026;5.468;2023-03-01T01:07:49;16.92;;;12.43;;
53666;SDS011;39568;51.026;5.468;2023-03-01T01:10:15;19.25;;;12.65;;
53666;SDS011;39568;51.026;5.468;2023-03-01T01:12:45;15.73;;;12.35;;
53666;SDS011;39568;51.026;5.468;2023-03-01T01:15:12;20.38;;;14.00;;
53666;SDS011;39568;51.026;5.468;2023-03-01T01:17:41;17.75;;;12.80;;
53666;SDS011;39568;51.026;5.468;2023-03-01T01:20:09;21.20;;;13.38;;
53666;SDS011;39568;51.026;5.468;2023-03-01T01:22:36;23.27;;;11.90;;
53666;SDS011;39568;51.026;5.468;2023-03-01T01:25:03;19.27;;;13.50;;
53666;SDS011;39568;51.026;5.468;2023-03-01T01:27:31;24.33;;;14.43;;
53666;SDS011;39568;51.026;5.468;2023-03-01T01:29:59;22.17;;;14.00;;
53666;SDS011;39568;51.026;5.468;2023-03-01T01:32:25;20.13;;;14.55;;
53666;SDS011;39568;51.026;5.468;2023-03-01T01:34:52;27.25;;;14.50;;
53666;SDS011;39568;51.026;5.468;2023-03-01T01:37:19;22.67;;;14.55;;
53666;SDS011;39568;51.026;5.468;2023-03-01T01:39:47;25.65;;;13.88;;
53666;SDS011;39568;51.026;5.468;2023-03-01T01:42:14;25.58;;;14.88;;
53666;SDS011;39568;51.026;5.468;2023-03-01T01:44:42;20.65;;;15.10;;
53666;SDS011;39568;51.026;5.468;2023-03-01T01:47:14;21.33;;;14.70;;
53666;SDS011;39568;51.026;5.468;2023-03-01T01:49:46;22.05;;;15.35;;
53666;SDS011;39568;51.026;5.468;2023-03-01T01:52:16;23.10;;;15.10;;
53666;SDS011;39568;51.026;5.468;2023-03-01T01:54:47;21.75;;;15.55;;
53666;SDS011;39568;51.026;5.468;2023-03-01T01:57:18;28.15;;;15.55;;
53666;SDS011;39568;51.026;5.468;2023-03-01T01:59:48;28.33;;;14.53;;
53666;SDS011;39568;51.026;5.468;2023-03-01T02:02:20;24.40;;;14.93;;
53666;SDS011;39568;51.026;5.468;2023-03-01T02:04:47;19.77;;;15.32;;
53666;SDS011;39568;51.026;5.468;2023-03-01T02:07:17;25.45;;;15.65;;
53666;SDS011;39568;51.026;5.468;2023-03-01T02:09:46;18.42;;;14.63;;
53666;SDS011;39568;51.026;5.468;2023-03-01T02:12:14;21.05;;;15.48;;
53666;SDS011;39568;51.026;5.468;2023-03-01T02:14:43;25.27;;;16.80;;
53666;SDS011;39568;51.026;5.468;2023-03-01T02:17:10;24.02;;;16.77;;
53666;SDS011;39568;51.026;5.468;2023-03-01T02:19:43;32.10;;;17.23;;
53666;SDS011;39568;51.026;5.468;2023-03-01T02:22:20;27.20;;;16.38;;
53666;SDS011;39568;51.026;5.468;2023-03-01T02:24:52;29.63;;;17.48;;
53666;SDS011;39568;51.026;5.468;2023-03-01T02:27:29;27.60;;;19.10;;
53666;SDS011;39568;51.026;5.468;2023-03-01T02:30:05;26.35;;;16.73;;
53666;SDS011;39568;51.026;5.468;2023-03-01T02:32:33;33.90;;;17.70;;
53666;SDS011;39568;51.026;5.468;2023-03-01T02:34:59;24.88;;;18.13;;
53666;SDS011;39568;51.026;5.468;2023-03-01T02:37:26;26.15;;;18.35;;
53666;SDS011;39568;51.026;5.468;2023-03-01T02:39:54;30.52;;;17.98;;
53666;SDS011;39568;51.026;5.468;2023-03-01T02:42:26;26.65;;;18.40;;
53666;SDS011;39568;51.026;5.468;2023-03-01T02:44:59;26.67;;;18.75;;
53666;SDS011;39568;51.026;5.468;2023-03-01T02:47:27;27.50;;;20.02;;
53666;SDS011;39568;51.026;5.468;2023-03-01T02:49:54;27.65;;;18.02;;
53666;SDS011;39568;51.026;5.468;2023-03-01T02:52:26;31.90;;;20.13;;
53666;SDS011;39568;51.026;5.468;2023-03-01T02:55:00;35.88;;;21.52;;
53666;SDS011;39568;51.026;5.468;2023-03-01T02:57:30;43.78;;;23.17;;
53666;SDS011;39568;51.026;5.468;2023-03-01T02:59:59;36.50;;;22.17;;
53666;SDS011;39568;51.026;5.468;2023-03-01T03:02:33;42.08;;;23.35;;
53666;SDS011;39568;51.026;5.468;2023-03-01T03:05:05;58.55;;;28.25;;
53666;SDS011;39568;51.026;5.468;2023-03-01T03:07:34;51.58;;;28.10;;
53666;SDS011;39568;51.026;5.468;2023-03-01T03:10:03;50.97;;;22.73;;
53666;SDS011;39568;51.026;5.468;2023-03-01T03:12:31;44.75;;;22.15;;
53666;SDS011;39568;51.026;5.468;2023-03-01T03:14:58;42.72;;;21.15;;
53666;SDS011;39568;51.026;5.468;2023-03-01T03:17:24;40.03;;;21.65;;
53666;SDS011;39568;51.026;5.468;2023-03-01T03:19:53;36.53;;;19.40;;
53666;SDS011;39568;51.026;5.468;2023-03-01T03:22:19;33.45;;;21.42;;
53666;SDS011;39568;51.026;5.468;2023-03-01T03:24:46;34.05;;;20.92;;
53666;SDS011;39568;51.026;5.468;2023-03-01T03:27:13;33.78;;;20.35;;
53666;SDS011;39568;51.026;5.468;2023-03-01T03:29:39;30.67;;;19.38;;
53666;SDS011;39568;51.026;5.468;2023-03-01T03:32:06;34.22;;;20.63;;
53666;SDS011;39568;51.026;5.468;2023-03-01T03:34:33;28.75;;;18.23;;
53666;SDS011;39568;51.026;5.468;2023-03-01T03:37:01;27.55;;;17.73;;
53666;SDS011;39568;51.026;5.468;2023-03-01T03:39:28;32.25;;;20.40;;
53666;SDS011;39568;51.026;5.468;2023-03-01T03:44:26;37.92;;;22.60;;
53666;SDS011;39568;51.026;5.468;2023-03-01T03:46:53;30.95;;;21.88;;
53666;SDS011;39568;51.026;5.468;2023-03-01T03:49:20;41.47;;;19.77;;
53666;SDS011;39568;51.026;5.468;2023-03-01T03:51:46;31.90;;;19.73;;
53666;SDS011;39568;51.026;5.468;2023-03-01T03:54:14;29.25;;;19.08;;
53666;SDS011;39568;51.026;5.468;2023-03-01T03:56:42;30.13;;;19.38;;
53666;SDS011;39568;51.026;5.468;2023-03-01T03:59:09;33.55;;;21.92;;
53666;SDS011;39568;51.026;5.468;2023-03-01T04:01:36;36.70;;;22.10;;
53666;SDS011;39568;51.026;5.468;2023-03-01T04:04:03;43.90;;;24.58;;
53666;SDS011;39568;51.026;5.468;2023-03-01T04:06:32;38.95;;;22.27;;
53666;SDS011;39568;51.026;5.468;2023-03-01T04:08:59;42.85;;;22.85;;
53666;SDS011;39568;51.026;5.468;2023-03-01T04:11:29;37.60;;;22.10;;
53666;SDS011;39568;51.026;5.468;2023-03-01T04:13:57;44.13;;;24.35;;
53666;SDS011;39568;51.026;5.468;2023-03-01T04:16:25;34.85;;;20.77;;
53666;SDS011;39568;51.026;5.468;2023-03-01T04:18:52;38.67;;;21.42;;
53666;SDS011;39568;51.026;5.468;2023-03-01T04:21:19;36.75;;;22.02;;
53666;SDS011;39568;51.026;5.468;2023-03-01T04:23:46;34.28;;;21.95;;
53666;SDS011;39568;51.026;5.468;2023-03-01T04:26:13;40.25;;;23.13;;
53666;SDS011;39568;51.026;5.468;2023-03-01T04:28:41;34.65;;;23.33;;
53666;SDS011;39568;51.026;5.468;2023-03-01T04:31:11;37.38;;;22.05;;
53666;SDS011;39568;51.026;5.468;2023-03-01T04:33:40;33.00;;;22.23;;
53666;SDS011;39568;51.026;5.468;2023-03-01T04:36:08;44.13;;;21.73;;
53666;SDS011;39568;51.026;5.468;2023-03-01T04:38:35;37.35;;;22.70;;
53666;SDS011;39568;51.026;5.468;2023-03-01T04:41:03;45.90;;;23.75;;
53666;SDS011;39568;51.026;5.468;2023-03-01T04:43:30;35.97;;;21.98;;
53666;SDS011;39568;51.026;5.468;2023-03-01T04:46:03;37.38;;;24.35;;
53666;SDS011;39568;51.026;5.468;2023-03-01T04:48:34;45.47;;;25.00;;
53666;SDS011;39568;51.026;5.468;2023-03-01T04:51:01;34.35;;;23.33;;
53666;SDS011;39568;51.026;5.468;2023-03-01T04:53:28;32.10;;;22.02;;
53666;SDS011;39568;51.026;5.468;2023-03-01T04:55:55;38.55;;;24.00;;
53666;SDS011;39568;51.026;5.468;2023-03-01T04:58:22;37.95;;;21.45;;
53666;SDS011;39568;51.026;5.468;2023-03-01T05:00:50;40.40;;;23.13;;
53666;SDS011;39568;51.026;5.468;2023-03-01T05:03:18;38.80;;;23.33;;
53666;SDS011;39568;51.026;5.468;2023-03-01T05:05:46;40.40;;;25.38;;
53666;SDS011;39568;51.026;5.468;2023-03-01T05:08:17;44.85;;;22.83;;
53666;SDS011;39568;51.026;5.468;2023-03-01T05:10:46;39.35;;;23.67;;
53666;SDS011;39568;51.026;5.468;2023-03-01T05:13:14;37.97;;;24.02;;
53666;SDS011;39568;51.026;5.468;2023-03-01T05:15:46;37.38;;;23.48;;
53666;SDS011;39568;51.026;5.468;2023-03-01T05:18:13;40.42;;;22.52;;
53666;SDS011;39568;51.026;5.468;2023-03-01T05:20:41;42.83;;;24.52;;
53666;SDS011;39568;51.026;5.468;2023-03-01T05:23:08;41.05;;;25.02;;
53666;SDS011;39568;51.026;5.468;2023-03-01T05:25:34;39.40;;;23.42;;
53666;SDS011;39568;51.026;5.468;2023-03-01T05:28:05;33.72;;;22.55;;
53666;SDS011;39568;51.026;5.468;2023-03-01T05:30:34;42.67;;;24.65;;
53666;SDS011;39568;51.026;5.468;2023-03-01T05:33:01;37.20;;;25.20;;
53666;SDS011;39568;51.026;5.468;2023-03-01T05:35:28;37.72;;;24.33;;
53666;SDS011;39568;51.026;5.468;2023-03-01T05:37:59;38.60;;;24.10;;
53666;SDS011;39568;51.026;5.468;2023-03-01T05:40:25;38.92;;;24.45;;
53666;SDS011;39568;51.026;5.468;2023-03-01T05:42:53;44.15;;;23.55;;
53666;SDS011;39568;51.026;5.468;2023-03-01T05:45:21;39.50;;;24.67;;
53666;SDS011;39568;51.026;5.468;2023-03-01T05:47:49;44.47;;;24.70;;
53666;SDS011;39568;51.026;5.468;2023-03-01T05:50:18;35.38;;;22.25;;
53666;SDS011;39568;51.026;5.468;2023-03-01T05:52:46;46.50;;;25.05;;
53666;SDS011;39568;51.026;5.468;2023-03-01T05:55:15;48.17;;;26.42;;
53666;SDS011;39568;51.026;5.468;2023-03-01T05:57:42;46.83;;;26.83;;
53666;SDS011;39568;51.026;5.468;2023-03-01T06:00:10;46.13;;;27.08;;
53666;SDS011;39568;51.026;5.468;2023-03-01T06:02:38;41.67;;;24.25;;
53666;SDS011;39568;51.026;5.468;2023-03-01T06:05:05;43.95;;;25.65;;
53666;SDS011;39568;51.026;5.468;2023-03-01T06:07:33;44.03;;;25.40;;
53666;SDS011;39568;51.026;5.468;2023-03-01T06:10:00;46.83;;;26.75;;
53666;SDS011;39568;51.026;5.468;2023-03-01T06:12:31;37.25;;;23.92;;
53666;SDS011;39568;51.026;5.468;2023-03-01T06:14:58;38.80;;;22.02;;
53666;SDS011;39568;51.026;5.468;2023-03-01T06:17:25;34.95;;;23.25;;
53666;SDS011;39568;51.026;5.468;2023-03-01T06:19:51;41.25;;;22.58;;
53666;SDS011;39568;51.026;5.468;2023-03-01T06:22:18;44.50;;;26.67;;
53666;SDS011;39568;51.026;5.468;2023-03-01T06:24:45;53.10;;;30.13;;
53666;SDS011;39568;51.026;5.468;2023-03-01T06:27:11;58.72;;;28.33;;
53666;SDS011;39568;51.026;5.468;2023-03-01T06:29:39;52.13;;;28.83;;
53666;SDS011;39568;51.026;5.468;2023-03-01T06:32:06;44.33;;;28.60;;
53666;SDS011;39568;51.026;5.468;2023-03-01T06:34:33;44.50;;;26.80;;
53666;SDS011;39568;51.026;5.468;2023-03-01T06:37:00;50.08;;;27.45;;
53666;SDS011;39568;51.026;5.468;2023-03-01T06:39:30;54.20;;;26.05;;
53666;SDS011;39568;51.026;5.468;2023-03-01T06:41:57;40.08;;;24.42;;
53666;SDS011;39568;51.026;5.468;2023-03-01T06:44:23;47.67;;;23.92;;
53666;SDS011;39568;51.026;5.468;2023-03-01T06:46:51;42.95;;;26.33;;
53666;SDS011;39568;51.026;5.468;2023-03-01T06:49:18;40.45;;;26.23;;
53666;SDS011;39568;51.026;5.468;2023-03-01T06:51:46;49.60;;;26.33;;
53666;SDS011;39568;51.026;5.468;2023-03-01T06:54:13;53.25;;;27.23;;
53666;SDS011;39568;51.026;5.468;2023-03-01T06:56:40;45.50;;;25.85;;
53666;SDS011;39568;51.026;5.468;2023-03-01T06:59:06;43.72;;;25.67;;
53666;SDS011;39568;51.026;5.468;2023-03-01T07:01:33;57.15;;;25.90;;
53666;SDS011;39568;51.026;5.468;2023-03-01T07:04:01;45.28;;;24.08;;
53666;SDS011;39568;51.026;5.468;2023-03-01T07:06:28;34.72;;;21.50;;
53666;SDS011;39568;51.026;5.468;2023-03-01T07:08:55;37.35;;;23.23;;
53666;SDS011;39568;51.026;5.468;2023-03-01T07:11:21;36.88;;;20.50;;
53666;SDS011;39568;51.026;5.468;2023-03-01T07:13:48;37.17;;;20.50;;
53666;SDS011;39568;51.026;5.468;2023-03-01T07:16:15;33.15;;;19.83;;
53666;SDS011;39568;51.026;5.468;2023-03-01T07:18:42;29.73;;;18.52;;
53666;SDS011;39568;51.026;5.468;2023-03-01T07:21:11;32.15;;;19.02;;
53666;SDS011;39568;51.026;5.468;2023-03-01T07:23:40;31.35;;;18.77;;
53666;SDS011;39568;51.026;5.468;2023-03-01T07:26:07;27.17;;;17.67;;
53666;SDS011;39568;51.026;5.468;2023-03-01T07:28:33;26.77;;;18.30;;
53666;SDS011;39568;51.026;5.468;2023-03-01T07:31:03;29.65;;;18.50;;
53666;SDS011;39568;51.026;5.468;2023-03-01T07:33:31;29.00;;;18.20;;
53666;SDS011;39568;51.026;5.468;2023-03-01T07:35:58;24.75;;;17.35;;
53666;SDS011;39568;51.026;5.468;2023-03-01T07:38:28;26.25;;;17.50;;
53666;SDS011;39568;51.026;5.468;2023-03-01T07:40:57;26.55;;;17.77;;
53666;SDS011;39568;51.026;5.468;2023-03-01T07:43:25;24.75;;;18.17;;
53666;SDS011;39568;51.026;5.468;2023-03-01T07:45:51;23.30;;;16.00;;
53666;SDS011;39568;51.026;5.468;2023-03-01T07:48:18;22.30;;;15.68;;
53666;SDS011;39568;51.026;5.468;2023-03-01T07:50:45;25.02;;;17.65;;
53666;SDS011;39568;51.026;5.468;2023-03-01T07:53:12;34.17;;;15.73;;
53666;SDS011;39568;51.026;5.468;2023-03-01T07:55:40;24.85;;;14.48;;
53666;SDS011;39568;51.026;5.468;2023-03-01T07:58:07;23.33;;;15.60;;
53666;SDS011;39568;51.026;5.468;2023-03-01T08:00:33;24.70;;;14.68;;
53666;SDS011;39568;51.026;5.468;2023-03-01T08:03:00;25.42;;;16.38;;
53666;SDS011;39568;51.026;5.468;2023-03-01T08:05:28;22.08;;;15.05;;
53666;SDS011;39568;51.026;5.468;2023-03-01T08:07:55;28.40;;;14.82;;
53666;SDS011;39568;51.026;5.468;2023-03-01T08:10:21;20.90;;;14.73;;
53666;SDS011;39568;51.026;5.468;2023-03-01T08:12:51;31.38;;;18.02;;
53666;SDS011;39568;51.026;5.468;2023-03-01T08:15:18;53.38;;;24.92;;
53666;SDS011;39568;51.026;5.468;2023-03-01T08:17:45;30.63;;;19.88;;
53666;SDS011;39568;51.026;5.468;2023-03-01T08:20:15;46.00;;;23.08;;
53666;SDS011;39568;51.026;5.468;2023-03-01T08:22:42;22.35;;;15.88;;
53666;SDS011;39568;51.026;5.468;2023-03-01T08:25:08;33.58;;;17.60;;
53666;SDS011;39568;51.026;5.468;2023-03-01T08:27:35;19.35;;;14.68;;
53666;SDS011;39568;51.026;5.468;2023-03-01T08:30:04;28.25;;;13.07;;
53666;SDS011;39568;51.026;5.468;2023-03-01T08:32:34;20.80;;;12.85;;
53666;SDS011;39568;51.026;5.468;2023-03-01T08:35:02;20.42;;;12.38;;
53666;SDS011;39568;51.026;5.468;2023-03-01T08:37:29;15.00;;;11.82;;
53666;SDS011;39568;51.026;5.468;2023-03-01T08:39:57;15.85;;;11.07;;
53666;SDS011;39568;51.026;5.468;2023-03-01T08:42:25;13.18;;;10.35;;
53666;SDS011;39568;51.026;5.468;2023-03-01T08:44:51;19.75;;;10.13;;
53666;SDS011;39568;51.026;5.468;2023-03-01T08:47:19;13.13;;;10.23;;
53666;SDS011;39568;51.026;5.468;2023-03-01T08:49:46;12.88;;;10.20;;
53666;SDS011;39568;51.026;5.468;2023-03-01T08:52:13;19.48;;;11.05;;
53666;SDS011;39568;51.026;5.468;2023-03-01T08:54:39;21.17;;;10.85;;
53666;SDS011;39568;51.026;5.468;2023-03-01T08:57:06;10.52;;;9.07;;
53666;SDS011;39568;51.026;5.468;2023-03-01T08:59:34;12.40;;;9.45;;
53666;SDS011;39568;51.026;5.468;2023-03-01T09:02:04;16.95;;;9.82;;
53666;SDS011;39568;51.026;5.468;2023-03-01T09:04:32;11.05;;;8.55;;
53666;SDS011;39568;51.026;5.468;2023-03-01T09:06:59;13.35;;;8.65;;
53666;SDS011;39568;51.026;5.468;2023-03-01T09:09:26;16.13;;;10.07;;
53666;SDS011;39568;51.026;5.468;2023-03-01T09:11:52;10.18;;;8.70;;
53666;SDS011;39568;51.026;5.468;2023-03-01T09:14:19;11.85;;;8.93;;
53666;SDS011;39568;51.026;5.468;2023-03-01T09:16:46;10.15;;;8.10;;
53666;SDS011;39568;51.026;5.468;2023-03-01T09:19:13;12.07;;;8.68;;
53666;SDS011;39568;51.026;5.468;2023-03-01T09:21:41;10.45;;;8.52;;
53666;SDS011;39568;51.026;5.468;2023-03-01T09:24:17;11.43;;;8.68;;
53666;SDS011;39568;51.026;5.468;2023-03-01T09:26:45;13.48;;;8.45;;
53666;SDS011;39568;51.026;5.468;2023-03-01T09:29:12;12.57;;;8.25;;
53666;SDS011;39568;51.026;5.468;2023-03-01T09:31:39;13.65;;;8.65;;
53666;SDS011;39568;51.026;5.468;2023-03-01T09:34:07;9.20;;;7.40;;
53666;SDS011;39568;51.026;5.468;2023-03-01T09:36:34;11.18;;;8.32;;
53666;SDS011;39568;51.026;5.468;2023-03-01T09:39:03;11.15;;;8.35;;
53666;SDS011;39568;51.026;5.468;2023-03-01T09:41:37;8.75;;;7.15;;
53666;SDS011;39568;51.026;5.468;2023-03-01T09:44:12;10.68;;;8.25;;
53666;SDS011;39568;51.026;5.468;2023-03-01T09:46:46;12.32;;;8.50;;
53666;SDS011;39568;51.026;5.468;2023-03-01T09:49:14;8.90;;;7.55;;
53666;SDS011;39568;51.026;5.468;2023-03-01T09:51:44;8.98;;;7.95;;
53666;SDS011;39568;51.026;5.468;2023-03-01T09:54:22;10.63;;;7.30;;
53666;SDS011;39568;51.026;5.468;2023-03-01T09:56:53;14.18;;;8.80;;
53666;SDS011;39568;51.026;5.468;2023-03-01T09:59:33;11.30;;;7.85;;
53666;SDS011;39568;51.026;5.468;2023-03-01T10:02:14;11.55;;;8.38;;
53666;SDS011;39568;51.026;5.468;2023-03-01T10:04:50;10.52;;;8.77;;
53666;SDS011;39568;51.026;5.468;2023-03-01T10:07:25;14.00;;;8.50;;
53666;SDS011;39568;51.026;5.468;2023-03-01T10:09:58;11.07;;;7.85;;
53666;SDS011;39568;51.026;5.468;2023-03-01T10:12:30;10.98;;;8.60;;
53666;SDS011;39568;51.026;5.468;2023-03-01T10:15:03;12.70;;;8.80;;
53666;SDS011;39568;51.026;5.468;2023-03-01T10:17:36;8.50;;;7.68;;
53666;SDS011;39568;51.026;5.468;2023-03-01T10:20:17;13.57;;;8.38;;
53666;SDS011;39568;51.026;5.468;2023-03-01T10:22:45;12.05;;;9.68;;
53666;SDS011;39568;51.026;5.468;2023-03-01T10:25:17;12.27;;;7.93;;
53666;SDS011;39568;51.026;5.468;2023-03-01T10:27:52;10.65;;;8.20;;
53666;SDS011;39568;51.026;5.468;2023-03-01T10:30:20;15.70;;;9.40;;
53666;SDS011;39568;51.026;5.468;2023-03-01T10:32:54;12.07;;;8.77;;
53666;SDS011;39568;51.026;5.468;2023-03-01T10:35:23;10.02;;;7.50;;
53666;SDS011;39568;51.026;5.468;2023-03-01T10:37:57;15.10;;;8.95;;
53666;SDS011;39568;51.026;5.468;2023-03-01T10:40:29;12.88;;;8.45;;
53666;SDS011;39568;51.026;5.468;2023-03-01T10:42:57;18.20;;;9.13;;
53666;SDS011;39568;51.026;5.468;2023-03-01T10:45:30;12.52;;;9.82;;
53666;SDS011;39568;51.026;5.468;2023-03-01T10:48:03;11.18;;;8.65;;
53666;SDS011;39568;51.026;5.468;2023-03-01T10:50:38;16.90;;;9.10;;
53666;SDS011;39568;51.026;5.468;2023-03-01T10:53:10;11.52;;;9.27;;
53666;SDS011;39568;51.026;5.468;2023-03-01T10:55:59;10.60;;;8.63;;
53666;SDS011;39568;51.026;5.468;2023-03-01T10:58:28;16.35;;;8.43;;
53666;SDS011;39568;51.026;5.468;2023-03-01T11:00:56;12.68;;;8.48;;
53666;SDS011;39568;51.026;5.468;2023-03-01T11:03:27;11.10;;;8.05;;
53666;SDS011;39568;51.026;5.468;2023-03-01T11:05:57;9.90;;;8.75;;
53666;SDS011;39568;51.026;5.468;2023-03-01T11:11:17;15.00;;;8.25;;
53666;SDS011;39568;51.026;5.468;2023-03-01T11:13:50;9.43;;;8.10;;
53666;SDS011;39568;51.026;5.468;2023-03-01T11:18:55;12.88;;;8.20;;
53666;SDS011;39568;51.026;5.468;2023-03-01T11:21:23;18.00;;;7.90;;
53666;SDS011;39568;51.026;5.468;2023-03-01T11:23:51;12.90;;;8.55;;
53666;SDS011;39568;51.026;5.468;2023-03-01T11:26:19;11.77;;;8.40;;
53666;SDS011;39568;51.026;5.468;2023-03-01T11:28:48;12.88;;;8.88;;
53666;SDS011;39568;51.026;5.468;2023-03-01T11:31:20;13.48;;;8.85;;
53666;SDS011;39568;51.026;5.468;2023-03-01T11:33:49;10.98;;;8.65;;
53666;SDS011;39568;51.026;5.468;2023-03-01T11:36:24;9.55;;;8.05;;
53666;SDS011;39568;51.026;5.468;2023-03-01T11:38:56;11.65;;;8.93;;
53666;SDS011;39568;51.026;5.468;2023-03-01T11:41:30;9.20;;;7.32;;
53666;SDS011;39568;51.026;5.468;2023-03-01T11:44:00;9.65;;;7.95;;
53666;SDS011;39568;51.026;5.468;2023-03-01T11:46:36;10.75;;;8.23;;
53666;SDS011;39568;51.026;5.468;2023-03-01T11:49:35;12.40;;;8.57;;
53666;SDS011;39568;51.026;5.468;2023-03-01T11:52:17;14.93;;;8.02;;
53666;SDS011;39568;51.026;5.468;2023-03-01T11:54:57;12.63;;;8.63;;
53666;SDS011;39568;51.026;5.468;2023-03-01T11:57:45;11.25;;;9.13;;
53666;SDS011;39568;51.026;5.468;2023-03-01T12:00:25;12.23;;;8.93;;
53666;SDS011;39568;51.026;5.468;2023-03-01T12:06:12;11.13;;;8.65;;
53666;SDS011;39568;51.026;5.468;2023-03-01T12:08:50;11.00;;;9.00;;
53666;SDS011;39568;51.026;5.468;2023-03-01T12:11:27;17.10;;;8.95;;
53666;SDS011;39568;51.026;5.468;2023-03-01T12:14:13;12.05;;;10.70;;
53666;SDS011;39568;51.026;5.468;2023-03-01T12:20:10;11.80;;;8.15;;
53666;SDS011;39568;51.026;5.468;2023-03-01T12:22:46;17.65;;;8.57;;
53666;SDS011;39568;51.026;5.468;2023-03-01T12:25:27;13.60;;;8.27;;
53666;SDS011;39568;51.026;5.468;2023-03-01T12:31:16;10.57;;;8.23;;
53666;SDS011;39568;51.026;5.468;2023-03-01T12:34:01;11.40;;;8.43;;
53666;SDS011;39568;51.026;5.468;2023-03-01T12:36:44;10.57;;;9.32;;
53666;SDS011;39568;51.026;5.468;2023-03-01T12:39:29;15.48;;;8.68;;
53666;SDS011;39568;51.026;5.468;2023-03-01T12:42:06;10.23;;;7.90;;
53666;SDS011;39568;51.026;5.468;2023-03-01T12:44:44;12.32;;;8.10;;
53666;SDS011;39568;51.026;5.468;2023-03-01T12:47:26;13.43;;;8.20;;
53666;SDS011;39568;51.026;5.468;2023-03-01T12:50:05;10.98;;;8.30;;
53666;SDS011;39568;51.026;5.468;2023-03-01T12:52:40;13.15;;;8.05;;
53666;SDS011;39568;51.026;5.468;2023-03-01T12:55:16;10.63;;;9.52;;
53666;SDS011;39568;51.026;5.468;2023-03-01T12:57:51;10.45;;;7.68;;
53666;SDS011;39568;51.026;5.468;2023-03-01T13:00:26;12.20;;;8.32;;
53666;SDS011;39568;51.026;5.468;2023-03-01T13:03:00;9.38;;;7.88;;
53666;SDS011;39568;51.026;5.468;2023-03-01T13:05:39;9.80;;;7.60;;
53666;SDS011;39568;51.026;5.468;2023-03-01T13:08:14;9.32;;;7.72;;
53666;SDS011;39568;51.026;5.468;2023-03-01T13:10:47;8.73;;;7.82;;
53666;SDS011;39568;51.026;5.468;2023-03-01T13:13:20;11.70;;;7.70;;
53666;SDS011;39568;51.026;5.468;2023-03-01T13:15:47;13.30;;;8.15;;
53666;SDS011;39568;51.026;5.468;2023-03-01T13:18:32;12.73;;;8.27;;
53666;SDS011;39568;51.026;5.468;2023-03-01T13:21:00;10.27;;;8.40;;
53666;SDS011;39568;51.026;5.468;2023-03-01T13:23:30;18.63;;;9.13;;
53666;SDS011;39568;51.026;5.468;2023-03-01T13:26:00;10.02;;;8.48;;
53666;SDS011;39568;51.026;5.468;2023-03-01T13:28:46;12.85;;;8.57;;
53666;SDS011;39568;51.026;5.468;2023-03-01T13:34:49;10.52;;;8.77;;
53666;SDS011;39568;51.026;5.468;2023-03-01T13:37:24;9.30;;;8.35;;
53666;SDS011;39568;51.026;5.468;2023-03-01T13:39:55;8.40;;;7.47;;
53666;SDS011;39568;51.026;5.468;2023-03-01T13:48:02;7.90;;;7.15;;
53666;SDS011;39568;51.026;5.468;2023-03-01T13:50:36;11.17;;;7.93;;
53666;SDS011;39568;51.026;5.468;2023-03-01T13:53:10;9.93;;;8.15;;
53666;SDS011;39568;51.026;5.468;2023-03-01T13:58:15;9.00;;;7.63;;
53666;SDS011;39568;51.026;5.468;2023-03-01T14:00:44;13.82;;;9.18;;
53666;SDS011;39568;51.026;5.468;2023-03-01T14:03:12;10.38;;;7.53;;
53666;SDS011;39568;51.026;5.468;2023-03-01T14:05:43;14.95;;;8.30;;
53666;SDS011;39568;51.026;5.468;2023-03-01T14:08:25;10.70;;;7.68;;
53666;SDS011;39568;51.026;5.468;2023-03-01T14:10:56;11.68;;;8.48;;
53666;SDS011;39568;51.026;5.468;2023-03-01T14:13:55;10.75;;;7.65;;
53666;SDS011;39568;51.026;5.468;2023-03-01T14:16:36;10.25;;;8.32;;
53666;SDS011;39568;51.026;5.468;2023-03-01T14:19:14;7.90;;;7.00;;
53666;SDS011;39568;51.026;5.468;2023-03-01T14:21:46;11.35;;;7.30;;
53666;SDS011;39568;51.026;5.468;2023-03-01T14:24:16;14.10;;;7.57;;
53666;SDS011;39568;51.026;5.468;2023-03-01T14:26:44;9.85;;;7.10;;
53666;SDS011;39568;51.026;5.468;2023-03-01T14:29:23;10.90;;;8.80;;
53666;SDS011;39568;51.026;5.468;2023-03-01T14:31:50;8.13;;;7.32;;
53666;SDS011;39568;51.026;5.468;2023-03-01T14:34:18;12.98;;;8.55;;
53666;SDS011;39568;51.026;5.468;2023-03-01T14:36:48;9.38;;;7.45;;
53666;SDS011;39568;51.026;5.468;2023-03-01T14:39:16;11.05;;;7.05;;
53666;SDS011;39568;51.026;5.468;2023-03-01T14:41:44;12.88;;;6.40;;
53666;SDS011;39568;51.026;5.468;2023-03-01T14:44:12;9.90;;;7.03;;
53666;SDS011;39568;51.026;5.468;2023-03-01T14:46:44;7.60;;;6.07;;
53666;SDS011;39568;51.026;5.468;2023-03-01T14:49:12;6.85;;;6.10;;
53666;SDS011;39568;51.026;5.468;2023-03-01T14:51:42;9.15;;;7.38;;
53666;SDS011;39568;51.026;5.468;2023-03-01T14:54:20;6.50;;;5.95;;
53666;SDS011;39568;51.026;5.468;2023-03-01T14:56:50;6.53;;;6.03;;
53666;SDS011;39568;51.026;5.468;2023-03-01T14:59:19;6.90;;;5.78;;
53666;SDS011;39568;51.026;5.468;2023-03-01T15:01:48;6.57;;;5.97;;
53666;SDS011;39568;51.026;5.468;2023-03-01T15:04:16;9.90;;;6.35;;
53666;SDS011;39568;51.026;5.468;2023-03-01T15:06:44;6.93;;;6.13;;
53666;SDS011;39568;51.026;5.468;2023-03-01T15:09:12;8.10;;;6.45;;
53666;SDS011;39568;51.026;5.468;2023-03-01T15:11:43;7.72;;;5.80;;
53666;SDS011;39568;51.026;5.468;2023-03-01T15:14:26;11.60;;;7.13;;